Elk City, OK

6:07 AM CDT on July 29, 2016 (GMT -0500)
Clinton-Sherman | | Change Station

Elev 1923 ft 35.34 °N, 99.20 °W | Updated 14 minutes ago

Partly Cloudy
Partly Cloudy
75 °F
Feels Like 75 °F
N
12
Wind Variable Wind from NW

Today
High -- | Low -- °F
--% Chance of Precip.
Yesterday
High -- | Low -- °F
Precip. -- in
Pressure 29.96 in
Visibility 10.0 miles
Clouds Few 10000 ft
Dew Point 66 °F
Humidity 73%
Rainfall 0.00 in
Snow Depth Not available.
6:44 AM 8:43 PM
Waning Crescent, 23% visible
METAR KCSM 291053Z AUTO 32010KT 10SM FEW100 24/19 A3005 RMK AO2 PRESRR SLP146 T02390189
Pressure 29.96 in
Visibility 10.0 miles
Clouds Few 10000 ft
Dew Point 66 °F
Humidity 73%
Rainfall 0.00 in
Snow Depth Not available.
6:44 AM 8:43 PM
Waning Crescent, 23% visible
METAR KCSM 291053Z AUTO 32010KT 10SM FEW100 24/19 A3005 RMK AO2 PRESRR SLP146 T02390189

10-Day Weather Forecast

Almanac

Astronomy

Jul. 29, 2016 Rise Set
Actual Time
Civil Twilight
Nautical Twilight
Astronomical Twilight
Moon
Length of Visible Light
Length of Day
Tomorrow will be .
, % of the Moon is Illuminated

Today's Extremes

State Highs State Lows

Community

WunderPhotos

Upload Photos

1,928,312 photos uploaded!

WunderBlog® & News

Nearby

Air Quality

  Air Quality AQ Index Pollutant
Not available.

Snow Depth

Station Depth Elevation

Earthquake Activity

City Distance Mag. Time & Date
Minimum magnitude displayed is 2.5.

Coastal Water Temperatures

Place Temperature

Stations

Nearby Weather Stations

Station Location Temp. Windchill Dew Point Humidity Wind Precip. Elev Updated Type
                   

Watches & Warnings

There are currently no watches in effect.